KTEX Airport Information

Runway Information
Runway 09 Length 6870 ft width 100 ft
Elevation 9061 ft Threshold 0 ft Heading 105
Runway 27 Length 6870 ft Width 100 ft
Elevation 9078 ft Threshold 0 ft Heading 285
Airport Frequencies
Type CNTR Name DENVER CNT Frequency 125.35 MHZ
Type FSS Name DENVER RDO Frequency 122.15 MHZ
Type UNIC Name CTAF/UNICO Frequency 123 MHZ
Airport Navaids
Airport Weather Information & NOTAM
ADDS - METARS form results

(1634 UTC 20 January 2022)
Data provider http://aviationweather.gov/metar/data/
 
METAR text: KTEX 201615Z AUTO 15005KT 10SM CLR M08/M12 A3031 RMK AO2
Conditions at: KTEX (TELLURIDE REGION, CO, US) observed 1615 UTC 20 January 2022
Temperature: -8.0°C (18°F)
Dewpoint: -12.0°C (10°F) [RH = 73%]
Pressure (altimeter): 30.31 inches Hg (1026.5 mb)
Winds: from the SSE (150 degrees) at 6 MPH (5 knots; 2.6 m/s)
Visibility: 10 or more miles (16+ km)
Ceiling: at least 12,000 feet AGL
Clouds: sky clear below 12,000 feet AGL
Weather: automated observation with no human augmentation;
there may or may not be significant weather present at this time

METAR text: KTEX 201555Z AUTO 14004KT 10SM CLR M09/M13 A3030 RMK AO2
Conditions at: KTEX (TELLURIDE REGION, CO, US) observed 1555 UTC 20 January 2022
Temperature: -9.0°C (16°F)
Dewpoint: -13.0°C ( 9°F) [RH = 73%]
Pressure (altimeter): 30.30 inches Hg (1026.2 mb)
Winds: from the SE (140 degrees) at 5 MPH (4 knots; 2.1 m/s)
Visibility: 10 or more miles (16+ km)
Ceiling: at least 12,000 feet AGL
Clouds: sky clear below 12,000 feet AGL
Weather: automated observation with no human augmentation;
there may or may not be significant weather present at this time

METAR text: KTEX 201535Z AUTO 12003KT 10SM CLR M10/M13 A3029 RMK AO2
Conditions at: KTEX (TELLURIDE REGION, CO, US) observed 1535 UTC 20 January 2022
Temperature: -10.0°C (14°F)
Dewpoint: -13.0°C ( 9°F) [RH = 79%]
Pressure (altimeter): 30.29 inches Hg (1025.8 mb)
Winds: from the ESE (120 degrees) at 3 MPH (3 knots; 1.5 m/s)
Visibility: 10 or more miles (16+ km)
Ceiling: at least 12,000 feet AGL
Clouds: sky clear below 12,000 feet AGL
Weather: automated observation with no human augmentation;
there may or may not be significant weather present at this time

Forecast for: KTEX (TELLURIDE REGION, CO, US)
Text: KTEX 201140Z 2012/2112 14006KT P6SM FEW050 SCT180
Forecast period: 1200 to 1700 UTC 20 January 2022
Forecast type: FROM: standard forecast or significant change
Winds: from the SE (140 degrees) at 7 MPH (6 knots; 3.1 m/s)
Visibility: 6 or more miles (10+ km)
Ceiling: at least 12,000 feet AGL
Clouds: few clouds at 5000 feet AGL
scattered clouds at 18000 feet AGL
Weather: no significant weather forecast for this period
Text: FM201700 27008KT P6SM SKC
Forecast period: 1700 UTC 20 January 2022 to 0200 UTC 21 January 2022
Forecast type: FROM: standard forecast or significant change
Winds: from the W (270 degrees) at 9 MPH (8 knots; 4.1 m/s)
Visibility: 6 or more miles (10+ km)
Clouds: clear skies
Weather: no significant weather forecast for this period
Text: FM210200 14006KT P6SM FEW100 SCT150
Forecast period: 0200 to 1200 UTC 21 January 2022
Forecast type: FROM: standard forecast or significant change
Winds: from the SE (140 degrees) at 7 MPH (6 knots; 3.1 m/s)
Visibility: 6 or more miles (10+ km)
Ceiling: at least 12,000 feet AGL
Clouds: few clouds at 10000 feet AGL
scattered clouds at 15000 feet AGL
Weather: no significant weather forecast for this period